Time;durP1;ratioP1;P1;durP2;ratioP2;P2;SDS_P1;SDS_P2;PMS_P1;PMS_P2;Temp;Humidity;BMP_temperature;BMP_pressure;BME280_temperature;BME280_humidity;BME280_pressure;Samples;Min_cycle;Max_cycle;Signal;HPM_P1;HPM_P2
2022/07/14 00:00:15;;;;;;;6.20;3.60;;;14.70;99.90;;;;;;5247025;28;20051;-73
2022/07/14 00:02:46;;;;;;;3.92;3.25;;;14.80;99.90;;;;;;5247161;28;20025;-74
2022/07/14 00:05:17;;;;;;;4.13;3.70;;;14.80;99.90;;;;;;5247147;28;20031;-73
2022/07/14 00:07:48;;;;;;;4.82;4.32;;;14.70;99.90;;;;;;5247157;28;20437;-74
2022/07/14 00:10:19;;;;;;;4.63;4.20;;;14.10;99.90;;;;;;5246998;28;20107;-73
2022/07/14 00:12:50;;;;;;;4.70;4.20;;;14.30;99.90;;;;;;5246830;28;20032;-74
2022/07/14 00:15:21;;;;;;;5.80;4.28;;;14.10;99.90;;;;;;5246987;28;20543;-78
2022/07/14 00:17:52;;;;;;;5.45;3.88;;;14.40;99.90;;;;;;5247029;28;20065;-73
2022/07/14 00:20:23;;;;;;;7.65;3.80;;;14.50;99.90;;;;;;5248884;28;20491;-73
2022/07/14 00:22:56;;;;;;;4.80;3.92;;;14.50;99.90;;;;;;5250988;28;20074;-73
2022/07/14 00:25:27;;;;;;;6.65;4.47;;;14.30;99.90;;;;;;5266808;28;20021;-74
2022/07/14 00:27:58;;;;;;;7.28;4.10;;;14.20;99.90;;;;;;5251008;28;20468;-73
2022/07/14 00:30:29;;;;;;;6.55;4.28;;;14.20;99.90;;;;;;5250749;28;20035;-81
2022/07/14 00:33:00;;;;;;;4.00;3.38;;;14.20;99.90;;;;;;5250881;28;20384;-72
2022/07/14 00:35:31;;;;;;;5.30;4.28;;;14.30;99.90;;;;;;5250592;28;20078;-74
2022/07/14 00:38:04;;;;;;;5.70;4.22;;;14.50;99.90;;;;;;5250656;28;20534;-73
2022/07/14 00:40:34;;;;;;;5.18;3.80;;;14.50;99.90;;;;;;5250781;28;20028;-73
2022/07/14 00:43:05;;;;;;;5.57;4.72;;;14.20;99.90;;;;;;5250597;28;20047;-81
2022/07/14 00:45:36;;;;;;;6.28;3.90;;;14.00;99.90;;;;;;5250472;28;20142;-72
2022/07/14 00:48:07;;;;;;;4.78;4.25;;;14.20;99.90;;;;;;5250568;28;20028;-74
2022/07/14 00:50:41;;;;;;;5.35;3.88;;;14.20;99.90;;;;;;5250412;28;20063;-74
2022/07/14 00:53:13;;;;;;;5.38;4.40;;;14.20;99.90;;;;;;5250229;28;20078;-73
2022/07/14 00:55:44;;;;;;;6.03;3.78;;;14.00;99.90;;;;;;5250288;28;20020;-73
2022/07/14 00:58:14;;;;;;;6.25;4.68;;;13.90;99.90;;;;;;5250249;28;20090;-74
2022/07/14 01:00:46;;;;;;;5.95;4.47;;;13.60;99.90;;;;;;5249881;28;20369;-75
2022/07/14 01:03:17;;;;;;;4.43;3.88;;;14.10;99.90;;;;;;5250420;28;20062;-74
2022/07/14 01:05:48;;;;;;;5.88;4.40;;;14.20;99.90;;;;;;5250233;28;20043;-73
2022/07/14 01:08:19;;;;;;;5.28;4.30;;;14.00;99.90;;;;;;5250357;28;20029;-80
2022/07/14 01:10:50;;;;;;;8.13;4.80;;;13.70;99.90;;;;;;5250060;28;20020;-73
2022/07/14 01:13:21;;;;;;;6.05;4.22;;;13.70;99.90;;;;;;5249927;28;20487;-75
2022/07/14 01:15:52;;;;;;;6.05;4.18;;;14.10;99.90;;;;;;5250192;28;20091;-73
2022/07/14 01:18:22;;;;;;;5.20;4.70;;;14.10;99.90;;;;;;5250136;28;20035;-73
2022/07/14 01:20:53;;;;;;;5.35;4.50;;;14.20;99.90;;;;;;5250073;28;20020;-73
2022/07/14 01:23:24;;;;;;;6.82;5.28;;;14.00;99.90;;;;;;5249932;28;20345;-73
2022/07/14 01:25:55;;;;;;;8.27;5.38;;;13.70;99.90;;;;;;5250070;28;20074;-72
2022/07/14 01:28:25;;;;;;;5.82;4.97;;;13.80;99.90;;;;;;5249669;28;20484;-73
2022/07/14 01:30:56;;;;;;;6.15;4.95;;;14.00;99.90;;;;;;5249357;28;20457;-74
2022/07/14 01:33:27;;;;;;;6.40;4.47;;;13.80;99.90;;;;;;5249158;28;20036;-73
2022/07/14 01:35:58;;;;;;;5.03;4.50;;;13.80;99.90;;;;;;5249733;28;20024;-76
2022/07/14 01:38:29;;;;;;;8.27;5.07;;;13.90;99.90;;;;;;5249698;28;20032;-73
2022/07/14 01:40:59;;;;;;;5.28;4.40;;;13.50;99.90;;;;;;5249608;28;20078;-75
2022/07/14 01:43:32;;;;;;;5.82;4.60;;;14.00;99.90;;;;;;5249635;28;20064;-73
2022/07/14 01:46:03;;;;;;;6.60;4.25;;;14.10;99.90;;;;;;5249587;28;20024;-73
2022/07/14 01:48:34;;;;;;;6.68;4.28;;;13.80;99.90;;;;;;5249462;28;20040;-73
2022/07/14 01:51:05;;;;;;;7.05;4.95;;;13.40;99.90;;;;;;5248057;28;20389;-74
2022/07/14 01:53:36;;;;;;;7.82;5.18;;;13.60;99.90;;;;;;5249376;28;20125;-73
2022/07/14 01:56:07;;;;;;;6.43;5.25;;;13.20;99.90;;;;;;5249381;28;20107;-81
2022/07/14 01:58:38;;;;;;;6.45;4.55;;;13.50;99.90;;;;;;5249078;28;20037;-73
2022/07/14 02:04:01;;;;;;;6.50;4.80;;;14.00;99.90;;;;;;5249174;28;20273;-72
2022/07/14 02:06:32;;;;;;;6.38;3.97;;;13.80;99.90;;;;;;5249172;28;20016;-73
2022/07/14 02:09:03;;;;;;;5.72;5.10;;;13.50;99.90;;;;;;5249154;28;20024;-73
2022/07/14 02:14:24;;;;;;;9.90;6.13;;;13.20;99.90;;;;;;5248993;28;20456;-74
2022/07/14 02:16:55;;;;;;;6.57;5.90;;;13.00;99.90;;;;;;5248955;28;20445;-75
2022/07/14 02:19:27;;;;;;;8.75;5.95;;;13.10;99.90;;;;;;5248807;28;20025;-73
2022/07/14 02:21:57;;;;;;;8.13;5.13;;;13.20;99.90;;;;;;5248833;28;20017;-73
2022/07/14 02:24:28;;;;;;;5.65;5.00;;;13.50;99.90;;;;;;5248696;28;20385;-73
2022/07/14 02:26:59;;;;;;;5.78;4.47;;;13.50;99.90;;;;;;5248710;28;20017;-74
2022/07/14 02:29:30;;;;;;;5.90;4.38;;;13.40;99.90;;;;;;5248341;28;20518;-75
2022/07/14 02:32:01;;;;;;;4.57;4.15;;;13.30;99.90;;;;;;5248415;28;20688;-74
2022/07/14 02:34:32;;;;;;;7.20;4.82;;;13.50;99.90;;;;;;5248500;28;20514;-73
2022/07/14 02:37:03;;;;;;;5.63;4.65;;;13.10;99.90;;;;;;5248596;28;20024;-73
2022/07/14 02:39:34;;;;;;;5.40;4.05;;;13.30;99.90;;;;;;5248307;28;20021;-73
2022/07/14 02:42:05;;;;;;;8.38;4.35;;;13.60;99.90;;;;;;5248365;28;20021;-73
2022/07/14 02:44:35;;;;;;;6.10;4.68;;;13.70;99.90;;;;;;5248102;28;20078;-74
2022/07/14 02:47:06;;;;;;;5.55;4.38;;;13.70;99.90;;;;;;5248288;28;20025;-74
2022/07/14 02:49:37;;;;;;;6.43;4.97;;;13.40;99.90;;;;;;5248161;28;20021;-72
2022/07/14 02:52:08;;;;;;;5.75;4.20;;;13.20;99.90;;;;;;5248048;28;20055;-75
2022/07/14 02:54:38;;;;;;;4.40;4.00;;;13.60;99.90;;;;;;5248143;28;20021;-74
2022/07/14 02:57:09;;;;;;;5.38;4.75;;;13.70;99.90;;;;;;5248210;28;20107;-73
2022/07/14 02:59:41;;;;;;;7.90;4.18;;;13.70;99.90;;;;;;5247640;28;20028;-74
2022/07/14 03:02:12;;;;;;;5.00;3.80;;;13.80;99.90;;;;;;5248113;28;20040;-73
2022/07/14 03:04:43;;;;;;;5.55;4.35;;;13.70;99.90;;;;;;5248103;28;20082;-73
2022/07/14 03:07:14;;;;;;;7.43;4.72;;;13.40;99.90;;;;;;5247939;28;20025;-73
2022/07/14 03:09:44;;;;;;;6.53;4.55;;;13.30;99.90;;;;;;5247974;28;20533;-75
2022/07/14 03:12:15;;;;;;;5.85;4.80;;;13.20;99.90;;;;;;5247613;28;20036;-73
2022/07/14 03:14:46;;;;;;;6.10;5.25;;;13.20;99.90;;;;;;5247840;28;20062;-73
2022/07/14 03:17:17;;;;;;;7.28;5.38;;;13.20;99.90;;;;;;5247771;28;20464;-73
2022/07/14 03:19:49;;;;;;;6.20;4.68;;;13.40;99.90;;;;;;5247651;28;20444;-75
2022/07/14 03:22:20;;;;;;;6.72;4.43;;;13.70;99.90;;;;;;5247786;28;20112;-74
2022/07/14 03:24:51;;;;;;;5.55;4.57;;;13.80;99.90;;;;;;5247687;28;20438;-74
2022/07/14 03:27:22;;;;;;;6.90;4.25;;;13.80;99.90;;;;;;5247777;28;20074;-73
2022/07/14 03:29:52;;;;;;;8.98;4.93;;;14.00;99.90;;;;;;5247625;28;20021;-73
2022/07/14 03:32:23;;;;;;;6.43;5.65;;;13.90;99.90;;;;;;5247610;28;20051;-73
2022/07/14 03:34:54;;;;;;;6.32;5.70;;;13.90;99.90;;;;;;5247521;28;20016;-73
2022/07/14 03:37:25;;;;;;;7.22;6.50;;;13.90;99.90;;;;;;5247665;28;20438;-73
2022/07/14 03:39:56;;;;;;;7.82;6.63;;;13.90;99.90;;;;;;5247823;28;20031;-82
2022/07/14 03:42:28;;;;;;;10.35;7.30;;;13.90;99.90;;;;;;5247698;28;20121;-74
2022/07/14 03:44:59;;;;;;;9.05;7.50;;;13.60;99.90;;;;;;5247529;28;20028;-73
2022/07/14 03:47:29;;;;;;;12.10;7.53;;;13.80;99.90;;;;;;5247662;28;20369;-72
2022/07/14 03:50:00;;;;;;;8.88;7.57;;;13.60;99.90;;;;;;5247584;28;20021;-73
2022/07/14 03:52:31;;;;;;;8.50;6.93;;;13.60;99.90;;;;;;5247410;28;20039;-74
2022/07/14 03:55:02;;;;;;;6.70;6.07;;;13.70;99.90;;;;;;5246858;28;20483;-72
2022/07/14 03:57:33;;;;;;;7.82;6.65;;;14.30;99.90;;;;;;5247363;28;20119;-73
2022/07/14 04:00:05;;;;;;;8.43;6.90;;;14.20;99.90;;;;;;5247042;28;20111;-73
2022/07/14 04:02:36;;;;;;;7.68;6.20;;;14.10;99.90;;;;;;5247396;28;20036;-73
2022/07/14 04:05:07;;;;;;;7.63;6.32;;;14.40;99.90;;;;;;5247261;28;20035;-75
2022/07/14 04:07:39;;;;;;;7.50;6.05;;;14.60;99.90;;;;;;5247335;28;20043;-73
2022/07/14 04:10:10;;;;;;;7.72;6.80;;;14.50;99.90;;;;;;5247136;28;20051;-73
2022/07/14 04:12:40;;;;;;;7.90;6.43;;;14.30;99.90;;;;;;5247205;28;20040;-73
2022/07/14 04:15:11;;;;;;;8.07;6.20;;;14.60;99.90;;;;;;5247224;28;20480;-77
2022/07/14 04:17:42;;;;;;;9.05;7.20;;;15.00;99.90;;;;;;5247249;28;20028;-78
2022/07/14 04:20:13;;;;;;;7.45;6.13;;;14.80;99.90;;;;;;5247321;28;20028;-73
2022/07/14 04:22:44;;;;;;;9.23;7.07;;;14.70;99.90;;;;;;5247247;28;20489;-73
2022/07/14 04:25:15;;;;;;;9.10;6.97;;;14.80;99.90;;;;;;5246718;28;20397;-73
2022/07/14 04:27:46;;;;;;;8.57;6.70;;;15.40;99.90;;;;;;5245760;28;20032;-73
2022/07/14 04:30:17;;;;;;;10.93;5.80;;;15.20;99.90;;;;;;5246960;28;20029;-77
2022/07/14 04:32:48;;;;;;;6.65;5.90;;;15.50;99.90;;;;;;5245609;28;20033;-73
2022/07/14 04:35:19;;;;;;;6.38;5.45;;;15.50;99.90;;;;;;5246898;28;20089;-73
2022/07/14 04:37:50;;;;;;;6.90;5.88;;;15.90;99.90;;;;;;5245618;28;20075;-73
2022/07/14 04:40:21;;;;;;;6.50;5.70;;;15.80;99.90;;;;;;5246748;28;20029;-73
2022/07/14 04:42:51;;;;;;;9.43;6.13;;;16.10;99.90;;;;;;5246948;28;20025;-72
2022/07/14 04:45:23;;;;;;;6.68;6.00;;;16.30;99.90;;;;;;5246883;28;20452;-73
2022/07/14 04:47:53;;;;;;;7.15;5.53;;;16.60;99.90;;;;;;5247163;28;20036;-73
2022/07/14 04:53:13;;;;;;;5.35;4.85;;;16.70;99.90;;;;;;5247080;28;20075;-72
2022/07/14 04:55:44;;;;;;;5.88;5.10;;;17.00;99.90;;;;;;5245666;28;20052;-72
2022/07/14 04:58:15;;;;;;;6.57;4.75;;;17.20;99.90;;;;;;5246587;28;20020;-72
2022/07/14 05:00:45;;;;;;;6.72;5.55;;;17.30;99.90;;;;;;5246431;28;20036;-74
2022/07/14 05:03:16;;;;;;;9.27;4.90;;;17.00;99.90;;;;;;5246961;28;20474;-72
2022/07/14 05:05:47;;;;;;;5.00;4.38;;;17.50;99.90;;;;;;5245167;28;20059;-72
2022/07/14 05:08:18;;;;;;;6.43;4.57;;;17.40;99.90;;;;;;5249583;28;20402;-73
2022/07/14 05:10:48;;;;;;;5.35;4.45;;;17.70;99.90;;;;;;5250631;28;20023;-72
2022/07/14 05:13:19;;;;;;;5.15;4.13;;;17.80;99.90;;;;;;5249848;28;20123;-73
2022/07/14 05:15:50;;;;;;;4.97;4.20;;;18.10;99.90;;;;;;5250289;28;20085;-73
2022/07/14 05:18:21;;;;;;;9.73;4.03;;;18.60;99.90;;;;;;5250516;28;20029;-72
2022/07/14 05:20:52;;;;;;;6.40;3.90;;;18.70;99.90;;;;;;5250270;28;20460;-73
2022/07/14 05:23:23;;;;;;;6.97;4.10;;;19.00;99.90;;;;;;5248582;28;20039;-74
2022/07/14 05:25:54;;;;;;;6.50;3.72;;;18.90;99.90;;;;;;5250175;28;20024;-73
2022/07/14 05:28:26;;;;;;;8.00;3.80;;;19.20;99.90;;;;;;5250005;28;20153;-73
2022/07/14 05:30:57;;;;;;;4.03;3.38;;;19.60;99.90;;;;;;5249832;28;20035;-80
2022/07/14 05:33:28;;;;;;;4.75;3.42;;;19.90;99.90;;;;;;5249336;28;20037;-73
2022/07/14 05:35:59;;;;;;;5.03;3.60;;;20.20;99.90;;;;;;5249851;28;20024;-74
2022/07/14 05:38:31;;;;;;;4.68;3.20;;;20.30;99.90;;;;;;5248382;28;20392;-74
2022/07/14 05:41:02;;;;;;;4.88;3.50;;;20.50;99.90;;;;;;5249849;28;20017;-73
2022/07/14 05:43:33;;;;;;;7.13;3.45;;;20.60;99.90;;;;;;5249709;28;20381;-74
2022/07/14 05:46:08;;;;;;;6.43;3.60;;;20.60;99.90;;;;;;5249682;28;20025;-73
2022/07/14 05:48:39;;;;;;;5.82;3.03;;;20.80;99.90;;;;;;5249856;28;20038;-73
2022/07/14 05:51:15;;;;;;;4.38;2.97;;;21.10;99.90;;;;;;5249586;28;20020;-73
2022/07/14 05:53:47;;;;;;;5.50;2.78;;;20.80;99.90;;;;;;5249574;28;20043;-73
2022/07/14 05:56:18;;;;;;;5.22;2.28;;;21.80;99.90;;;;;;5248024;28;20475;-73
2022/07/14 05:58:48;;;;;;;3.78;1.67;;;21.60;99.90;;;;;;5249316;28;20033;-73
2022/07/14 06:01:21;;;;;;;4.05;1.90;;;21.70;99.90;;;;;;5249234;28;20075;-73
2022/07/14 06:03:56;;;;;;;3.80;1.70;;;22.00;99.90;;;;;;5249446;28;20025;-73
2022/07/14 06:06:27;;;;;;;4.18;1.83;;;22.00;99.90;;;;;;5249545;28;20017;-73
2022/07/14 06:08:58;;;;;;;5.47;1.92;;;22.30;99.90;;;;;;5248022;28;20031;-73
2022/07/14 06:11:28;;;;;;;4.65;1.52;;;22.10;99.90;;;;;;5248980;28;20028;-73
2022/07/14 06:14:01;;;;;;;7.30;1.73;;;22.20;99.90;;;;;;5249245;28;20517;-73
2022/07/14 06:16:33;;;;;;;5.75;2.00;;;22.90;99.90;;;;;;5249146;28;20035;-73
2022/07/14 06:19:03;;;;;;;6.38;2.63;;;23.40;99.90;;;;;;5248753;28;20383;-72
2022/07/14 06:21:34;;;;;;;13.35;4.65;;;23.70;99.90;;;;;;5249088;28;20028;-72
2022/07/14 06:24:05;;;;;;;12.52;4.72;;;23.60;99.90;;;;;;5249063;28;20032;-73
2022/07/14 06:26:36;;;;;;;9.63;4.90;;;23.60;99.90;;;;;;5248900;28;20387;-73
2022/07/14 06:29:07;;;;;;;13.25;6.15;;;23.80;99.90;;;;;;5248538;28;20096;-73
2022/07/14 06:31:38;;;;;;;9.55;4.07;;;23.90;99.90;;;;;;5247272;28;20135;-73
2022/07/14 06:34:09;;;;;;;5.68;2.72;;;23.90;99.90;;;;;;5248744;28;20417;-73
2022/07/14 06:36:39;;;;;;;7.32;2.53;;;23.60;99.90;;;;;;5247446;28;20028;-73
2022/07/14 06:39:10;;;;;;;8.02;3.20;;;24.00;99.90;;;;;;5248725;28;20044;-73
2022/07/14 06:41:42;;;;;;;5.63;3.38;;;23.70;99.90;;;;;;5248503;28;20456;-74
2022/07/14 06:44:13;;;;;;;6.05;2.00;;;23.90;99.90;;;;;;5248479;28;20415;-72
2022/07/14 06:46:44;;;;;;;6.15;1.90;;;24.10;99.90;;;;;;5248456;28;20032;-73
2022/07/14 06:49:15;;;;;;;5.28;1.90;;;23.80;99.90;;;;;;5248538;28;20491;-73
2022/07/14 06:51:46;;;;;;;7.97;3.08;;;24.20;99.90;;;;;;5248239;28;20051;-73
2022/07/14 06:54:17;;;;;;;6.65;1.90;;;23.80;99.90;;;;;;5246933;28;20476;-72
2022/07/14 06:56:48;;;;;;;2.13;1.13;;;24.30;99.90;;;;;;5248243;28;20111;-74
2022/07/14 06:59:18;;;;;;;6.03;2.03;;;24.30;99.90;;;;;;5247951;28;20025;-73
2022/07/14 07:01:49;;;;;;;4.72;1.95;;;23.80;99.90;;;;;;5247704;28;20050;-73
2022/07/14 07:04:20;;;;;;;5.65;2.65;;;24.00;99.90;;;;;;5246878;28;20354;-72
2022/07/14 07:06:51;;;;;;;8.27;2.45;;;24.30;99.90;;;;;;5247986;28;20031;-73
2022/07/14 07:09:22;;;;;;;4.20;1.75;;;25.00;99.90;;;;;;5247941;28;20016;-73
2022/07/14 07:11:53;;;;;;;7.93;1.67;;;25.00;99.90;;;;;;5247739;28;20517;-73
2022/07/14 07:14:24;;;;;;;3.45;1.52;;;24.80;99.90;;;;;;5247861;28;20017;-73
2022/07/14 07:16:55;;;;;;;3.10;1.30;;;24.60;99.90;;;;;;5247784;28;20096;-74
2022/07/14 07:19:26;;;;;;;5.20;1.55;;;24.00;99.90;;;;;;5247981;28;20032;-73
2022/07/14 07:21:57;;;;;;;7.03;1.58;;;24.20;99.90;;;;;;5246464;28;20025;-73
2022/07/14 07:24:28;;;;;;;5.30;1.90;;;24.40;99.90;;;;;;5247787;28;20039;-73
2022/07/14 07:26:59;;;;;;;7.97;1.60;;;25.10;99.90;;;;;;5247601;28;20016;-73
2022/07/14 07:29:30;;;;;;;6.15;2.20;;;24.30;99.90;;;;;;5246619;28;20419;-73
2022/07/14 07:32:00;;;;;;;7.70;3.83;;;24.70;99.90;;;;;;5247337;28;20036;-73
2022/07/14 07:34:31;;;;;;;3.42;2.50;;;25.10;99.90;;;;;;5247554;28;20024;-72
2022/07/14 07:37:03;;;;;;;6.97;3.53;;;25.30;99.90;;;;;;5247672;28;20020;-72
2022/07/14 07:39:34;;;;;;;9.65;4.57;;;24.40;99.90;;;;;;5246278;28;20372;-73
2022/07/14 07:42:04;;;;;;;7.55;3.03;;;24.80;99.90;;;;;;5247427;28;20142;-80
2022/07/14 07:44:36;;;;;;;7.75;1.60;;;24.60;99.90;;;;;;5246077;28;20483;-73
2022/07/14 07:47:07;;;;;;;3.28;1.80;;;24.40;99.90;;;;;;5246162;28;20032;-73
2022/07/14 07:49:37;;;;;;;8.68;2.50;;;24.40;99.90;;;;;;5247258;28;20011;-72
2022/07/14 07:52:08;;;;;;;4.45;2.67;;;24.70;99.90;;;;;;5247262;28;20563;-75
2022/07/14 07:54:39;;;;;;;2.53;1.60;;;25.30;99.90;;;;;;5247220;28;20020;-73
2022/07/14 07:57:10;;;;;;;4.75;1.95;;;25.30;99.90;;;;;;5247250;28;20055;-73
2022/07/14 07:59:41;;;;;;;7.30;2.10;;;25.40;99.90;;;;;;5262425;28;20064;-74
2022/07/14 08:02:12;;;;;;;3.58;1.80;;;25.80;99.90;;;;;;5247292;28;20093;-73
2022/07/14 08:04:43;;;;;;;4.10;2.28;;;25.40;99.90;;;;;;5247127;28;20021;-73
2022/07/14 08:07:13;;;;;;;7.97;2.22;;;25.20;99.90;;;;;;5246983;28;20404;-73
2022/07/14 08:09:45;;;;;;;9.85;4.18;;;25.50;99.90;;;;;;5247107;28;20020;-73
2022/07/14 08:12:15;;;;;;;5.05;2.10;;;25.80;99.90;;;;;;5246959;28;20036;-73
2022/07/14 08:14:49;;;;;;;7.93;2.20;;;25.60;99.90;;;;;;5246878;28;20426;-73
2022/07/14 08:17:21;;;;;;;6.32;2.67;;;25.50;99.90;;;;;;5246954;28;20029;-73
2022/07/14 08:19:52;;;;;;;5.20;2.08;;;25.50;99.90;;;;;;5247014;28;20372;-80
2022/07/14 08:22:27;;;;;;;11.95;5.47;;;25.40;99.90;;;;;;5245739;28;20037;-73
2022/07/14 08:24:58;;;;;;;18.95;3.25;;;25.90;99.90;;;;;;5246907;28;20109;-72
2022/07/14 08:27:29;;;;;;;5.43;2.50;;;26.00;99.90;;;;;;5246846;28;20054;-72
2022/07/14 08:30:00;;;;;;;6.63;3.72;;;26.00;99.90;;;;;;5246755;28;20536;-73
2022/07/14 08:32:47;;;;;;;6.72;2.40;;;25.30;99.90;;;;;;5246864;28;20388;-74
2022/07/14 08:35:24;;;;;;;2.65;1.60;;;25.50;99.90;;;;;;5245586;28;20031;-74
2022/07/14 08:37:55;;;;;;;3.45;1.58;;;25.90;99.90;;;;;;5246973;28;20032;-74
2022/07/14 08:40:26;;;;;;;8.68;3.67;;;26.20;99.90;;;;;;5246931;28;20066;-72
2022/07/14 08:42:57;;;;;;;13.93;7.65;;;26.30;99.90;;;;;;5250757;28;20115;-72
2022/07/14 08:45:34;;;;;;;9.30;4.45;;;25.90;99.90;;;;;;5249379;28;20491;-72
2022/07/14 08:48:06;;;;;;;4.28;1.90;;;25.70;99.90;;;;;;5250615;28;20056;-72
2022/07/14 08:50:37;;;;;;;5.50;1.63;;;25.30;99.90;;;;;;5250616;28;20385;-73
2022/07/14 08:53:10;;;;;;;6.15;2.05;;;25.70;99.90;;;;;;5250428;28;20058;-74
2022/07/14 08:55:41;;;;;;;5.57;1.60;;;26.20;99.90;;;;;;5250513;28;20035;-73
2022/07/14 08:58:12;;;;;;;6.90;1.75;;;26.20;99.90;;;;;;5250026;28;20032;-73
2022/07/14 09:00:43;;;;;;;5.03;1.90;;;26.60;99.90;;;;;;5249989;28;20128;-83
2022/07/14 09:03:15;;;;;;;7.15;1.55;;;26.70;99.90;;;;;;5250260;28;20021;-73
2022/07/14 09:05:46;;;;;;;5.43;2.42;;;26.70;99.90;;;;;;5250291;28;20051;-72
2022/07/14 09:08:17;;;;;;;2.97;1.50;;;26.90;99.90;;;;;;5250183;28;20020;-73
2022/07/14 09:10:48;;;;;;;7.57;2.00;;;26.50;99.90;;;;;;5250175;28;20468;-73
2022/07/14 09:13:21;;;;;;;4.88;1.27;;;26.50;99.90;;;;;;5249992;28;20040;-73
2022/07/14 09:16:19;;;;;;;3.83;1.30;;;26.80;99.90;;;;;;5250096;28;20029;-73
2022/07/14 09:19:07;;;;;;;3.28;1.40;;;27.00;99.90;;;;;;5248745;28;20028;-72
2022/07/14 09:21:43;;;;;;;2.88;1.25;;;26.70;99.90;;;;;;5250058;28;20095;-72
2022/07/14 09:24:14;;;;;;;5.00;1.20;;;26.90;99.90;;;;;;5249988;28;20369;-73
2022/07/14 09:26:51;;;;;;;3.10;1.00;;;27.00;99.90;;;;;;5249978;28;20506;-72
2022/07/14 09:29:25;;;;;;;6.85;2.47;;;27.10;99.90;;;;;;5249734;28;20056;-72
2022/07/14 09:31:56;;;;;;;3.92;1.23;;;27.30;99.90;;;;;;5249668;28;20036;-72
2022/07/14 09:34:34;;;;;;;1.83;0.98;;;27.40;99.90;;;;;;5249455;28;20043;-72
2022/07/14 09:37:11;;;;;;;4.78;1.23;;;26.70;99.90;;;;;;5249735;28;20456;-72
2022/07/14 09:39:55;;;;;;;5.80;1.20;;;26.40;99.90;;;;;;5249671;28;20024;-72
2022/07/14 09:42:48;;;;;;;3.63;1.00;;;26.20;99.90;;;;;;5249535;28;20013;-73
2022/07/14 09:45:36;;;;;;;1.40;0.88;;;27.30;99.90;;;;;;5249487;28;20038;-73
2022/07/14 09:48:11;;;;;;;2.17;1.20;;;26.70;99.90;;;;;;5249614;28;20020;-73
2022/07/14 09:50:47;;;;;;;6.47;2.22;;;26.80;99.90;;;;;;5249522;28;20033;-74
2022/07/14 09:53:31;;;;;;;3.22;1.65;;;27.20;99.90;;;;;;5248474;28;20037;-73
2022/07/14 09:56:03;;;;;;;5.22;1.83;;;26.80;99.90;;;;;;5248176;28;20036;-73
2022/07/14 09:58:46;;;;;;;2.85;1.20;;;27.10;99.90;;;;;;5249251;28;20033;-73
2022/07/14 10:01:18;;;;;;;3.70;1.10;;;27.00;99.90;;;;;;5249036;28;20361;-72
2022/07/14 10:03:51;;;;;;;4.78;1.20;;;27.30;99.90;;;;;;5249199;28;20391;-73
2022/07/14 10:06:23;;;;;;;5.70;1.15;;;27.80;99.90;;;;;;5249166;28;20029;-73
2022/07/14 10:08:55;;;;;;;1.65;1.02;;;27.60;99.90;;;;;;5249078;28;20025;-73
2022/07/14 10:11:31;;;;;;;5.10;1.10;;;27.40;99.90;;;;;;5248966;28;20029;-73
2022/07/14 10:14:02;;;;;;;3.15;1.17;;;27.00;99.90;;;;;;5248966;28;20032;-73
2022/07/14 10:16:34;;;;;;;5.63;0.98;;;27.30;99.90;;;;;;5249001;28;20028;-73
2022/07/14 10:19:05;;;;;;;3.25;1.00;;;27.00;99.90;;;;;;5248949;28;20035;-73
2022/07/14 10:21:37;;;;;;;6.88;1.10;;;26.60;99.90;;;;;;5248886;28;20032;-72
2022/07/14 10:24:09;;;;;;;5.15;1.60;;;27.20;99.90;;;;;;5248769;28;20024;-73
2022/07/14 10:26:40;;;;;;;7.65;0.85;;;27.80;99.90;;;;;;5247459;28;20511;-77
2022/07/14 10:29:12;;;;;;;2.25;0.80;;;27.80;99.90;;;;;;5248562;28;20040;-73
2022/07/14 10:32:14;;;;;;;5.30;1.33;;;27.90;99.90;;;;;;5247034;28;20123;-73
2022/07/14 10:34:49;;;;;;;6.22;1.48;;;27.30;99.90;;;;;;5248690;28;20067;-74
2022/07/14 10:37:26;;;;;;;5.50;1.50;;;27.70;99.90;;;;;;5247179;28;20473;-73
2022/07/14 10:40:03;;;;;;;1.85;1.10;;;27.90;99.90;;;;;;5248403;28;20060;-73
2022/07/14 10:43:02;;;;;;;3.35;1.00;;;27.80;99.90;;;;;;5248309;28;20094;-73
2022/07/14 10:45:33;;;;;;;4.70;1.80;;;27.50;99.90;;;;;;5248419;28;20032;-72
2022/07/14 10:48:04;;;;;;;5.13;1.17;;;28.00;99.90;;;;;;5248445;28;20475;-73
2022/07/14 10:50:35;;;;;;;3.28;0.82;;;28.10;99.90;;;;;;5248186;28;20020;-73
2022/07/14 10:53:08;;;;;;;1.77;0.95;;;27.20;99.90;;;;;;5248060;28;20043;-73
2022/07/14 10:55:40;;;;;;;5.53;1.05;;;28.10;99.90;;;;;;5246781;28;20426;-73
2022/07/14 10:58:20;;;;;;;3.60;0.80;;;28.00;99.90;;;;;;5247916;28;20036;-73
2022/07/14 11:00:55;;;;;;;3.72;1.10;;;27.60;99.90;;;;;;5246483;28;20048;-73
2022/07/14 11:03:32;;;;;;;4.20;1.15;;;27.20;99.90;;;;;;5247926;28;20025;-73
2022/07/14 11:06:07;;;;;;;7.88;1.70;;;27.70;99.90;;;;;;5246531;28;20035;-72
2022/07/14 11:09:04;;;;;;;2.25;0.90;;;27.30;99.90;;;;;;5247961;28;20048;-81
2022/07/14 11:11:35;;;;;;;3.38;1.00;;;27.50;99.90;;;;;;5247466;28;20031;-72
2022/07/14 11:14:10;;;;;;;4.22;0.82;;;28.20;99.90;;;;;;5247781;28;20384;-73
2022/07/14 11:16:55;;;;;;;4.13;0.80;;;27.70;99.90;;;;;;5247790;28;20372;-72
2022/07/14 11:19:38;;;;;;;3.92;1.00;;;27.70;99.90;;;;;;5247830;28;20038;-73
2022/07/14 11:22:20;;;;;;;2.08;1.08;;;27.20;99.90;;;;;;5247635;28;20104;-73
2022/07/14 11:24:59;;;;;;;3.53;0.68;;;27.90;99.90;;;;;;5247646;28;20047;-72
2022/07/14 11:27:38;;;;;;;2.20;0.80;;;28.20;99.90;;;;;;5245459;28;20518;-77
2022/07/14 11:30:28;;;;;;;4.07;1.67;;;27.60;99.90;;;;;;5246127;28;20484;-72
2022/07/14 11:33:02;;;;;;;4.07;1.05;;;28.20;99.90;;;;;;5247329;28;20544;-73
2022/07/14 11:38:30;;;;;;;4.00;0.70;;;27.70;99.90;;;;;;5247761;28;20028;-73
2022/07/14 11:41:02;;;;;;;1.48;0.80;;;27.80;99.90;;;;;;5247444;28;20113;-73
2022/07/14 11:43:35;;;;;;;2.38;0.63;;;27.80;99.90;;;;;;5247277;28;20056;-72
2022/07/14 11:46:09;;;;;;;1.30;0.65;;;27.70;99.90;;;;;;5246101;28;20031;-74
2022/07/14 11:48:48;;;;;;;4.97;0.85;;;28.30;99.90;;;;;;5247330;28;20031;-73
2022/07/14 11:51:19;;;;;;;3.55;0.80;;;28.40;99.90;;;;;;5247138;28;20055;-71
2022/07/14 11:54:08;;;;;;;2.13;0.70;;;27.60;99.90;;;;;;5247214;28;20064;-80
2022/07/14 11:56:40;;;;;;;5.40;1.02;;;28.10;99.90;;;;;;5246036;28;20373;-73
2022/07/14 11:59:17;;;;;;;2.20;0.90;;;28.00;99.90;;;;;;5247138;28;20032;-73
2022/07/14 12:01:48;;;;;;;5.35;0.90;;;27.70;99.90;;;;;;5245748;28;20083;-72
2022/07/14 12:04:18;;;;;;;3.25;0.80;;;27.80;99.90;;;;;;5247171;28;20488;-73
2022/07/14 12:06:49;;;;;;;3.97;1.00;;;28.10;99.90;;;;;;5247063;28;20023;-73
2022/07/14 12:09:32;;;;;;;3.97;0.77;;;27.80;99.90;;;;;;5245873;28;20090;-79
2022/07/14 12:12:03;;;;;;;3.67;1.20;;;28.00;99.90;;;;;;5247012;28;20036;-72
2022/07/14 12:14:43;;;;;;;3.63;0.70;;;28.30;99.90;;;;;;5262537;28;20068;-73
2022/07/14 12:17:15;;;;;;;6.00;0.75;;;28.30;99.90;;;;;;5250319;28;20021;-72
2022/07/14 12:19:46;;;;;;;4.65;1.40;;;28.00;99.90;;;;;;5251387;28;20035;-73
2022/07/14 12:22:17;;;;;;;4.28;1.13;;;28.40;99.90;;;;;;5251228;28;20028;-73
2022/07/14 12:24:48;;;;;;;5.28;1.10;;;28.30;99.90;;;;;;5251089;28;20024;-72
2022/07/14 12:27:19;;;;;;;2.92;0.98;;;27.70;99.90;;;;;;5251005;28;20016;-73
2022/07/14 12:29:51;;;;;;;3.22;1.17;;;27.80;99.90;;;;;;5251022;28;20082;-73
2022/07/14 12:32:26;;;;;;;6.55;1.50;;;28.30;99.90;;;;;;5250905;28;20055;-73
2022/07/14 12:34:57;;;;;;;2.72;1.08;;;28.40;99.90;;;;;;5251073;28;20032;-72
2022/07/14 12:37:27;;;;;;;2.45;0.70;;;28.20;99.90;;;;;;5250669;28;20093;-73
2022/07/14 12:39:58;;;;;;;2.15;0.82;;;28.40;99.90;;;;;;5250820;28;20020;-73
2022/07/14 12:42:29;;;;;;;5.13;1.05;;;28.70;99.90;;;;;;5250910;28;20375;-73
2022/07/14 12:45:07;;;;;;;2.20;0.80;;;28.40;99.90;;;;;;5250505;28;20119;-76
2022/07/14 12:48:03;;;;;;;1.85;0.80;;;28.40;99.90;;;;;;5250965;28;20468;-81
2022/07/14 12:50:33;;;;;;;4.60;0.63;;;28.30;99.90;;;;;;5250690;28;20027;-73
2022/07/14 12:53:08;;;;;;;5.20;1.15;;;28.20;99.90;;;;;;5250464;28;20036;-73
2022/07/14 12:55:46;;;;;;;3.63;0.80;;;27.90;99.90;;;;;;5249364;28;20582;-73
2022/07/14 12:58:17;;;;;;;4.20;1.70;;;27.70;99.90;;;;;;5250570;28;20032;-72
2022/07/14 13:00:48;;;;;;;3.30;0.75;;;28.10;99.90;;;;;;5250163;28;20044;-74
2022/07/14 13:03:19;;;;;;;2.65;0.88;;;28.10;99.90;;;;;;5249064;28;20111;-78
2022/07/14 13:05:55;;;;;;;2.88;0.75;;;28.10;99.90;;;;;;5249044;28;20472;-72
2022/07/14 13:08:39;;;;;;;4.13;1.17;;;28.60;99.90;;;;;;5250244;28;20051;-72
2022/07/14 13:11:11;;;;;;;2.13;0.70;;;28.20;99.90;;;;;;5250254;28;20029;-72
2022/07/14 13:13:45;;;;;;;3.47;0.80;;;27.70;99.90;;;;;;5248882;28;20040;-73
2022/07/14 13:16:20;;;;;;;2.03;0.80;;;28.70;99.90;;;;;;5250149;28;20055;-73
2022/07/14 13:19:14;;;;;;;1.77;0.80;;;27.70;99.90;;;;;;5250155;28;20028;-72
2022/07/14 13:22:06;;;;;;;2.55;0.63;;;28.00;99.90;;;;;;5250156;28;20028;-81
2022/07/14 13:24:37;;;;;;;4.18;1.10;;;28.00;99.90;;;;;;5249930;28;20025;-75